createdAt,value
2019-05-17T00:00:37.747Z,9.30
2019-05-17T00:03:08.303Z,9.30
2019-05-17T00:05:38.232Z,9.40
2019-05-17T00:08:08.177Z,9.40
2019-05-17T00:10:37.903Z,9.50
2019-05-17T00:13:11.830Z,9.50
2019-05-17T00:15:40.095Z,9.40
2019-05-17T00:18:10.301Z,9.30
2019-05-17T00:20:39.886Z,9.20
2019-05-17T00:23:09.531Z,9.10
2019-05-17T00:25:39.800Z,9.10
2019-05-17T00:28:09.372Z,9.20
2019-05-17T00:30:39.624Z,9.20
2019-05-17T00:33:09.614Z,9.20
2019-05-17T00:35:40.185Z,9.10
2019-05-17T00:38:10.125Z,9.10
2019-05-17T00:40:39.406Z,9.00
2019-05-17T00:43:09.692Z,9.00
2019-05-17T00:45:40.312Z,8.90
2019-05-17T00:48:10.626Z,8.90
2019-05-17T00:50:40.928Z,8.90
2019-05-17T00:53:11.559Z,8.80
2019-05-17T00:55:41.865Z,8.80
2019-05-17T00:58:11.724Z,8.80
2019-05-17T01:00:41.952Z,8.70
2019-05-17T01:03:12.450Z,8.70
2019-05-17T01:05:42.090Z,8.70
2019-05-17T01:08:12.303Z,8.60
2019-05-17T01:10:42.498Z,8.60
2019-05-17T01:13:12.744Z,8.60
2019-05-17T01:15:43.022Z,8.50
2019-05-17T01:18:12.919Z,8.50
2019-05-17T01:20:43.474Z,8.40
2019-05-17T01:23:13.748Z,8.40
2019-05-17T01:25:43.942Z,8.40
2019-05-17T01:28:16.347Z,8.30
2019-05-17T01:30:46.421Z,8.30
2019-05-17T01:33:17.197Z,8.30
2019-05-17T01:35:47.867Z,8.20
2019-05-17T01:38:17.904Z,8.30
2019-05-17T01:40:48.503Z,8.30
2019-05-17T01:43:18.688Z,8.20
2019-05-17T01:45:48.272Z,8.20
2019-05-17T01:48:18.499Z,8.20
2019-05-17T01:50:48.431Z,8.30
2019-05-17T01:53:18.355Z,8.20
2019-05-17T01:55:48.247Z,8.20
2019-05-17T01:58:18.191Z,8.10
2019-05-17T02:00:47.522Z,8.00
2019-05-17T02:03:17.710Z,8.00
2019-05-17T02:05:47.607Z,7.90
2019-05-17T02:08:17.822Z,7.90
2019-05-17T02:10:48.033Z,7.80
2019-05-17T02:13:18.289Z,7.90
2019-05-17T02:15:48.156Z,7.90
2019-05-17T02:18:18.156Z,7.80
2019-05-17T02:20:47.791Z,7.70
2019-05-17T02:23:17.507Z,7.60
2019-05-17T02:25:47.406Z,7.60
2019-05-17T02:28:17.714Z,7.60
2019-05-17T02:30:48.490Z,7.50
2019-05-17T02:33:18.392Z,7.60
2019-05-17T02:35:48.637Z,7.60
2019-05-17T02:38:18.527Z,7.50
2019-05-17T02:40:48.468Z,7.50
2019-05-17T02:43:18.347Z,7.50
2019-05-17T02:45:47.931Z,7.50
2019-05-17T02:48:18.121Z,7.50
2019-05-17T02:50:48.381Z,7.60
2019-05-17T02:53:18.410Z,7.50
2019-05-17T02:55:47.776Z,7.40
2019-05-17T02:58:18.063Z,7.40
2019-05-17T03:00:48.025Z,7.30
2019-05-17T03:03:17.314Z,7.20
2019-05-17T03:05:47.039Z,7.20
2019-05-17T03:08:16.987Z,7.20
2019-05-17T03:10:46.896Z,7.00
2019-05-17T03:13:18.004Z,6.90
2019-05-17T03:15:48.172Z,6.80
2019-05-17T03:18:17.725Z,6.60
2019-05-17T03:20:47.279Z,6.60
2019-05-17T03:23:16.944Z,6.60
2019-05-17T03:25:47.007Z,6.50
2019-05-17T03:28:16.928Z,6.50
2019-05-17T03:30:47.644Z,6.50
2019-05-17T03:33:17.790Z,6.60
2019-05-17T03:35:47.952Z,6.50
2019-05-17T03:38:18.219Z,6.50
2019-05-17T03:41:07.325Z,6.50
2019-05-17T03:43:22.651Z,6.40
2019-05-17T03:45:53.372Z,6.50
2019-05-17T03:48:23.197Z,6.50
2019-05-17T03:50:53.763Z,6.40
2019-05-17T03:53:24.313Z,6.50
2019-05-17T03:55:54.377Z,6.70
2019-05-17T03:58:24.989Z,6.70
2019-05-17T04:00:55.355Z,6.70
2019-05-17T04:03:24.975Z,6.80
2019-05-17T04:05:54.638Z,7.00
2019-05-17T04:08:24.410Z,7.20
2019-05-17T04:10:54.146Z,7.40
2019-05-17T04:13:23.857Z,7.50
2019-05-17T04:15:54.042Z,7.60
2019-05-17T04:18:24.904Z,7.80
2019-05-17T04:20:55.206Z,7.90
2019-05-17T04:23:24.823Z,7.90
2019-05-17T04:25:54.473Z,8.00
2019-05-17T04:28:24.159Z,8.00
2019-05-17T04:30:54.397Z,8.20
2019-05-17T04:33:24.661Z,8.80
2019-05-17T04:35:54.979Z,9.30
2019-05-17T04:38:24.328Z,10.00
2019-05-17T04:40:54.273Z,10.60
2019-05-17T04:43:24.492Z,11.10
2019-05-17T04:45:54.829Z,11.70
2019-05-17T04:48:25.077Z,12.10
2019-05-17T04:50:55.032Z,12.50
2019-05-17T04:53:24.713Z,12.90
2019-05-17T04:55:54.630Z,13.20
2019-05-17T04:58:24.915Z,13.50
2019-05-17T05:00:55.276Z,13.70
2019-05-17T05:03:25.772Z,14.30
2019-05-17T05:05:56.101Z,14.60
2019-05-17T05:08:26.346Z,14.90
2019-05-17T05:10:56.688Z,15.10
2019-05-17T05:13:26.951Z,15.40
2019-05-17T05:15:56.576Z,15.60
2019-05-17T05:18:28.197Z,15.80
2019-05-17T05:20:57.849Z,16.00
2019-05-17T05:23:31.812Z,16.10
2019-05-17T05:26:02.785Z,16.40
2019-05-17T05:28:32.491Z,16.70
2019-05-17T05:31:02.444Z,16.60
2019-05-17T05:33:33.374Z,16.50
2019-05-17T05:36:03.748Z,15.90
2019-05-17T05:38:33.765Z,16.00
2019-05-17T05:41:03.743Z,16.00
2019-05-17T05:43:33.995Z,16.20
2019-05-17T05:46:04.501Z,16.60
2019-05-17T05:48:34.432Z,16.60
2019-05-17T05:51:05.209Z,16.40
2019-05-17T05:53:35.872Z,16.50
2019-05-17T05:56:05.830Z,16.80
2019-05-17T05:58:35.735Z,17.00
2019-05-17T06:01:05.645Z,17.30
2019-05-17T06:03:36.170Z,17.80
2019-05-17T06:06:06.123Z,18.10
2019-05-17T06:08:36.709Z,18.30
2019-05-17T06:11:06.713Z,18.50
2019-05-17T06:13:36.300Z,18.90
2019-05-17T06:16:06.282Z,18.60
2019-05-17T06:18:36.847Z,18.60
2019-05-17T06:21:06.692Z,18.80
2019-05-17T06:23:36.521Z,19.50
2019-05-17T06:26:06.697Z,20.30
2019-05-17T06:28:42.328Z,20.30
2019-05-17T06:31:12.197Z,20.50
2019-05-17T06:33:42.342Z,20.00
2019-05-17T06:36:13.721Z,20.20
2019-05-17T06:38:43.479Z,19.70
2019-05-17T06:41:13.371Z,19.90
2019-05-17T06:43:43.321Z,19.70
2019-05-17T06:46:13.190Z,19.40
2019-05-17T06:48:43.161Z,18.80
2019-05-17T06:51:13.720Z,18.70
2019-05-17T06:53:44.222Z,18.70
2019-05-17T06:56:13.843Z,18.30
2019-05-17T06:58:43.708Z,18.10
2019-05-17T07:01:13.978Z,18.50
2019-05-17T07:03:44.220Z,18.90
2019-05-17T07:06:15.418Z,19.70
2019-05-17T07:08:45.388Z,19.40
2019-05-17T07:11:15.629Z,19.30
2019-05-17T07:13:46.296Z,19.30
2019-05-17T07:16:16.182Z,19.60
2019-05-17T07:18:46.478Z,20.50
2019-05-17T07:21:16.716Z,20.90
2019-05-17T07:23:46.701Z,20.40
2019-05-17T07:26:16.690Z,20.00
2019-05-17T07:28:46.728Z,19.40
2019-05-17T07:31:16.685Z,19.70
2019-05-17T07:33:47.248Z,20.00
2019-05-17T07:36:16.874Z,20.50
2019-05-17T07:38:46.729Z,20.10
2019-05-17T07:41:16.698Z,19.40
2019-05-17T07:43:46.620Z,19.00
2019-05-17T07:46:16.819Z,18.80
2019-05-17T07:48:46.764Z,19.00
2019-05-17T07:51:16.460Z,19.10
2019-05-17T07:53:46.382Z,19.70
2019-05-17T07:56:16.966Z,20.00
2019-05-17T07:58:49.357Z,20.40
2019-05-17T08:01:20.490Z,20.00
2019-05-17T08:03:50.339Z,20.20
2019-05-17T08:06:20.322Z,20.30
2019-05-17T08:08:50.554Z,20.40
2019-05-17T08:11:20.487Z,20.40
2019-05-17T08:13:50.648Z,20.30
2019-05-17T08:16:20.615Z,19.90
2019-05-17T08:18:50.617Z,20.10
2019-05-17T08:21:20.596Z,20.10
2019-05-17T08:23:50.720Z,20.00
2019-05-17T08:26:20.848Z,19.80
2019-05-17T08:28:51.410Z,19.70
2019-05-17T08:31:21.308Z,19.50
2019-05-17T08:33:51.226Z,19.20
2019-05-17T08:36:21.898Z,18.70
2019-05-17T08:38:52.202Z,18.40
2019-05-17T08:41:22.214Z,17.90
2019-05-17T08:43:52.173Z,17.20
2019-05-17T08:46:22.401Z,16.60
2019-05-17T08:48:52.595Z,16.50
2019-05-17T08:51:23.048Z,16.40
2019-05-17T08:53:53.377Z,16.50
2019-05-17T08:56:23.677Z,16.70
2019-05-17T08:58:53.685Z,17.00
2019-05-17T09:01:23.950Z,17.20
2019-05-17T09:03:54.198Z,17.00
2019-05-17T09:06:24.232Z,17.10
2019-05-17T09:08:54.236Z,17.10
2019-05-17T09:11:23.895Z,16.80
2019-05-17T09:13:58.271Z,16.70
2019-05-17T09:16:24.902Z,16.90
2019-05-17T09:18:55.088Z,17.00
2019-05-17T09:21:24.703Z,17.10
2019-05-17T09:23:55.261Z,17.30
2019-05-17T09:26:24.681Z,17.20
2019-05-17T09:28:54.299Z,17.50
2019-05-17T09:31:24.205Z,17.70
2019-05-17T09:33:53.497Z,17.90
2019-05-17T09:36:24.325Z,17.80
2019-05-17T09:38:54.305Z,17.80
2019-05-17T09:41:24.223Z,17.80
2019-05-17T09:43:54.283Z,17.60
2019-05-17T09:46:24.246Z,17.70
2019-05-17T09:48:53.893Z,17.80
2019-05-17T09:51:24.459Z,17.80
2019-05-17T09:53:54.369Z,17.90
2019-05-17T09:56:25.263Z,18.10
2019-05-17T09:58:55.630Z,18.20
2019-05-17T10:01:39.299Z,18.20
2019-05-17T10:04:30.418Z,18.40
2019-05-17T10:07:00.503Z,18.40
2019-05-17T10:09:30.271Z,18.50
2019-05-17T10:12:00.974Z,18.40
2019-05-17T10:14:31.538Z,18.40
2019-05-17T10:17:01.617Z,18.70
2019-05-17T10:19:31.875Z,18.70
2019-05-17T10:22:01.515Z,18.60
2019-05-17T10:24:38.000Z,18.80
2019-05-17T10:27:03.178Z,18.80
2019-05-17T10:29:33.407Z,18.80
2019-05-17T10:32:03.699Z,19.00
2019-05-17T10:34:34.104Z,19.00
2019-05-17T10:37:05.222Z,19.10
2019-05-17T10:39:38.712Z,19.30
2019-05-17T10:42:09.909Z,19.60
2019-05-17T10:44:47.106Z,19.80
2019-05-17T10:47:11.455Z,19.50
2019-05-17T10:49:41.704Z,19.40
2019-05-17T10:52:11.414Z,19.40
2019-05-17T10:54:41.022Z,19.60
2019-05-17T10:57:10.963Z,19.70
2019-05-17T10:59:41.347Z,19.80
2019-05-17T11:02:10.956Z,19.90
2019-05-17T11:04:41.624Z,19.80
2019-05-17T11:07:11.984Z,19.60
2019-05-17T11:09:41.935Z,19.80
2019-05-17T11:12:12.239Z,19.80
2019-05-17T11:14:52.188Z,19.70
2019-05-17T11:17:13.928Z,19.90
2019-05-17T11:19:44.184Z,19.80
2019-05-17T11:22:14.214Z,19.90
2019-05-17T11:24:44.616Z,20.00
2019-05-17T11:27:15.216Z,20.20
2019-05-17T11:29:44.782Z,20.20
2019-05-17T11:32:14.768Z,20.20
2019-05-17T11:34:44.745Z,20.40
2019-05-17T11:37:14.789Z,20.40
2019-05-17T11:39:45.421Z,20.40
2019-05-17T11:42:15.336Z,20.30
2019-05-17T11:44:45.580Z,20.20
2019-05-17T11:47:15.627Z,20.20
2019-05-17T11:49:45.951Z,20.30
2019-05-17T11:52:15.990Z,20.40
2019-05-17T11:54:46.028Z,20.50
2019-05-17T11:57:15.976Z,20.30
2019-05-17T11:59:45.386Z,20.40
2019-05-17T12:02:15.608Z,20.50
2019-05-17T12:04:45.875Z,21.00
2019-05-17T12:07:16.395Z,21.00
2019-05-17T12:09:46.026Z,21.30
2019-05-17T12:12:16.091Z,21.20
2019-05-17T12:14:46.076Z,21.00
2019-05-17T12:17:16.444Z,20.90
2019-05-17T12:19:46.450Z,21.00
2019-05-17T12:22:16.459Z,21.20
2019-05-17T12:24:46.483Z,21.50
2019-05-17T12:27:16.876Z,21.50
2019-05-17T12:29:46.629Z,21.40
2019-05-17T12:32:17.287Z,21.60
2019-05-17T12:34:47.324Z,21.60
2019-05-17T12:37:17.020Z,21.40
2019-05-17T12:39:46.923Z,21.50
2019-05-17T12:42:17.206Z,21.60
2019-05-17T12:44:49.276Z,21.80
2019-05-17T12:47:19.181Z,21.90
2019-05-17T12:49:49.522Z,21.60
2019-05-17T12:52:19.762Z,21.40
2019-05-17T12:54:50.089Z,21.40
2019-05-17T12:57:20.065Z,21.50
2019-05-17T12:59:50.230Z,21.60
2019-05-17T13:02:20.802Z,21.30
2019-05-17T13:04:50.454Z,21.00
2019-05-17T13:07:21.052Z,21.10
2019-05-17T13:09:52.230Z,21.40
2019-05-17T13:12:22.885Z,21.40
2019-05-17T13:14:52.950Z,21.30
2019-05-17T13:17:22.561Z,21.10
2019-05-17T13:19:52.957Z,21.00
2019-05-17T13:22:23.277Z,21.10
2019-05-17T13:24:53.206Z,21.00
2019-05-17T13:27:23.234Z,21.00
2019-05-17T13:29:54.276Z,21.00
2019-05-17T13:32:23.580Z,21.20
2019-05-17T13:34:53.833Z,21.20
2019-05-17T13:37:24.033Z,21.30
2019-05-17T13:39:54.457Z,21.30
2019-05-17T13:42:24.817Z,21.30
2019-05-17T13:44:55.054Z,21.10
2019-05-17T13:47:25.014Z,21.00
2019-05-17T13:49:55.416Z,21.00
2019-05-17T13:52:25.685Z,20.90
2019-05-17T13:54:55.691Z,21.10
2019-05-17T13:57:25.594Z,21.20
2019-05-17T13:59:56.345Z,21.10
2019-05-17T14:02:26.563Z,21.10
2019-05-17T14:04:57.150Z,21.30
2019-05-17T14:07:27.405Z,21.60
2019-05-17T14:09:57.397Z,21.70
2019-05-17T14:12:27.072Z,21.80
2019-05-17T14:14:56.991Z,21.70
2019-05-17T14:17:27.057Z,21.70
2019-05-17T14:19:57.313Z,21.60
2019-05-17T14:22:27.013Z,21.40
2019-05-17T14:24:57.272Z,21.40
2019-05-17T14:27:27.343Z,21.70
2019-05-17T14:29:57.630Z,21.80
2019-05-17T14:32:29.055Z,21.50
2019-05-17T14:34:59.338Z,21.10
2019-05-17T14:37:29.329Z,20.80
2019-05-17T14:39:59.484Z,20.60
2019-05-17T14:42:29.467Z,20.60
2019-05-17T14:44:59.973Z,20.60
2019-05-17T14:47:29.892Z,20.70
2019-05-17T14:50:00.142Z,20.70
2019-05-17T14:52:30.725Z,20.70
2019-05-17T14:55:00.987Z,20.70
2019-05-17T14:57:30.927Z,20.70
2019-05-17T15:00:01.198Z,20.70
2019-05-17T15:02:31.648Z,20.70
2019-05-17T15:05:03.306Z,20.60
2019-05-17T15:07:33.718Z,20.60
2019-05-17T15:10:03.438Z,20.60
2019-05-17T15:12:34.543Z,20.60
2019-05-17T15:15:04.307Z,20.60
2019-05-17T15:17:35.121Z,20.60
2019-05-17T15:20:05.706Z,20.50
2019-05-17T15:22:35.818Z,20.20
2019-05-17T15:25:05.289Z,19.60
2019-05-17T15:27:35.571Z,19.00
2019-05-17T15:30:05.689Z,18.60
2019-05-17T15:32:35.959Z,18.40
2019-05-17T15:35:06.059Z,18.30
2019-05-17T15:37:36.030Z,18.30
2019-05-17T15:40:06.684Z,18.20
2019-05-17T15:42:44.097Z,18.20
2019-05-17T15:45:09.086Z,18.20
2019-05-17T15:47:39.493Z,18.30
2019-05-17T15:50:10.718Z,18.20
2019-05-17T15:52:41.205Z,17.90
2019-05-17T15:55:12.012Z,17.70
2019-05-17T15:57:42.373Z,17.40
2019-05-17T16:00:12.881Z,17.20
2019-05-17T16:02:43.382Z,17.30
2019-05-17T16:05:14.215Z,17.30
2019-05-17T16:07:44.965Z,17.30
2019-05-17T16:10:16.764Z,17.20
2019-05-17T16:13:01.766Z,17.10
2019-05-17T16:15:20.296Z,17.00
2019-05-17T16:17:50.776Z,17.10
2019-05-17T16:20:21.558Z,17.20
2019-05-17T16:22:51.977Z,17.20
2019-05-17T16:25:22.011Z,17.30
2019-05-17T16:27:52.362Z,17.30
2019-05-17T16:30:23.170Z,17.20
2019-05-17T16:32:53.280Z,17.20
2019-05-17T16:35:23.626Z,17.00
2019-05-17T16:37:53.786Z,17.00
2019-05-17T16:40:24.126Z,17.10
2019-05-17T16:42:54.103Z,17.00
2019-05-17T16:45:24.293Z,17.10
2019-05-17T16:47:54.731Z,17.00
2019-05-17T16:50:24.331Z,16.90
2019-05-17T16:53:05.420Z,16.90
2019-05-17T16:55:27.686Z,17.00
2019-05-17T16:57:58.376Z,17.00
2019-05-17T17:00:37.775Z,17.00
2019-05-17T17:03:08.334Z,16.80
2019-05-17T17:05:38.716Z,16.90
2019-05-17T17:08:08.822Z,16.90
2019-05-17T17:10:38.454Z,16.90
2019-05-17T17:13:08.586Z,16.90
2019-05-17T17:15:38.869Z,16.80
2019-05-17T17:18:09.601Z,16.80
2019-05-17T17:20:39.011Z,16.70
2019-05-17T17:23:09.081Z,16.60
2019-05-17T17:25:39.380Z,16.50
2019-05-17T17:28:09.056Z,16.40
2019-05-17T17:30:39.122Z,16.30
2019-05-17T17:33:09.221Z,16.20
2019-05-17T17:35:38.975Z,16.10
2019-05-17T17:38:09.341Z,16.10
2019-05-17T17:40:42.189Z,16.00
2019-05-17T17:43:13.696Z,16.00
2019-05-17T17:45:43.696Z,16.00
2019-05-17T17:48:13.439Z,15.90
2019-05-17T17:50:43.818Z,15.80
2019-05-17T17:53:14.275Z,15.70
2019-05-17T17:55:44.622Z,15.60
2019-05-17T17:58:15.065Z,15.60
2019-05-17T18:00:45.770Z,15.50
2019-05-17T18:03:15.500Z,15.40
2019-05-17T18:05:45.531Z,15.30
2019-05-17T18:08:16.083Z,15.30
2019-05-17T18:10:46.758Z,15.30
2019-05-17T18:13:16.841Z,15.20
2019-05-17T18:15:49.778Z,15.20
2019-05-17T18:18:18.696Z,15.10
2019-05-17T18:20:49.424Z,15.00
2019-05-17T18:23:23.190Z,15.00
2019-05-17T18:25:51.876Z,14.90
2019-05-17T18:28:22.246Z,14.90
2019-05-17T18:30:52.562Z,14.80
2019-05-17T18:33:22.899Z,14.80
2019-05-17T18:35:52.680Z,14.70
2019-05-17T18:38:25.713Z,14.70
2019-05-17T18:40:55.580Z,14.60
2019-05-17T18:43:25.969Z,14.50
2019-05-17T18:45:56.363Z,14.50
2019-05-17T18:48:26.130Z,14.50
2019-05-17T18:50:56.600Z,14.50
2019-05-17T18:53:26.282Z,14.50
2019-05-17T18:55:56.641Z,14.60
2019-05-17T18:58:26.725Z,14.60
2019-05-17T19:00:57.154Z,14.60
2019-05-17T19:03:27.538Z,14.60
2019-05-17T19:05:57.503Z,14.70
2019-05-17T19:08:27.947Z,14.80
2019-05-17T19:10:58.005Z,14.80
2019-05-17T19:13:28.021Z,14.70
2019-05-17T19:15:58.350Z,14.60
2019-05-17T19:18:28.472Z,14.40
2019-05-17T19:20:59.298Z,14.30
2019-05-17T19:23:30.183Z,14.20
2019-05-17T19:26:00.610Z,14.10
2019-05-17T19:28:31.378Z,14.10
2019-05-17T19:31:01.411Z,14.00
2019-05-17T19:33:31.034Z,14.00
2019-05-17T19:36:01.458Z,13.80
2019-05-17T19:38:31.806Z,13.70
2019-05-17T19:41:02.189Z,13.70
2019-05-17T19:43:31.906Z,13.60
2019-05-17T19:46:02.649Z,13.60
2019-05-17T19:48:32.777Z,13.50
2019-05-17T19:51:03.471Z,13.60
2019-05-17T19:53:33.835Z,13.60
2019-05-17T19:56:03.280Z,13.60
2019-05-17T19:58:33.293Z,13.60
2019-05-17T20:01:03.399Z,13.60
2019-05-17T20:03:33.409Z,13.60
2019-05-17T20:06:04.098Z,13.60
2019-05-17T20:08:34.259Z,13.60
2019-05-17T20:11:04.582Z,13.50
2019-05-17T20:13:35.002Z,13.50
2019-05-17T20:16:05.733Z,13.50
2019-05-17T20:18:35.751Z,13.50
2019-05-17T20:21:06.324Z,13.40
2019-05-17T20:23:36.588Z,13.30
2019-05-17T20:26:06.718Z,13.10
2019-05-17T20:28:36.774Z,13.00
2019-05-17T20:31:06.478Z,12.90
2019-05-17T20:33:36.564Z,12.70
2019-05-17T20:36:06.323Z,12.60
2019-05-17T20:38:36.750Z,12.60
2019-05-17T20:41:06.804Z,12.50
2019-05-17T20:43:37.305Z,12.40
2019-05-17T20:46:07.711Z,12.30
2019-05-17T20:48:38.609Z,12.30
2019-05-17T20:51:08.919Z,12.30
2019-05-17T20:53:39.379Z,12.30
2019-05-17T20:56:09.503Z,12.30
2019-05-17T20:58:39.976Z,12.30
2019-05-17T21:01:10.476Z,12.30
2019-05-17T21:03:40.719Z,12.30
2019-05-17T21:06:10.851Z,12.30
2019-05-17T21:08:46.186Z,12.30
2019-05-17T21:11:13.543Z,12.20
2019-05-17T21:13:45.748Z,12.20
2019-05-17T21:16:16.167Z,12.20
2019-05-17T21:18:46.271Z,12.20
2019-05-17T21:21:16.763Z,12.10
2019-05-17T21:23:46.898Z,12.10
2019-05-17T21:26:16.588Z,12.10
2019-05-17T21:28:47.407Z,12.00
2019-05-17T21:31:17.789Z,12.00
2019-05-17T21:33:48.672Z,11.90
2019-05-17T21:36:19.817Z,11.90
2019-05-17T21:38:50.226Z,11.90
2019-05-17T21:41:22.035Z,11.90
2019-05-17T21:43:54.351Z,11.90
2019-05-17T21:46:24.371Z,11.90
2019-05-17T21:48:57.106Z,11.90
2019-05-17T21:51:27.526Z,11.90
2019-05-17T21:53:58.052Z,11.80
2019-05-17T21:56:28.985Z,11.80
2019-05-17T21:59:01.770Z,11.70
2019-05-17T22:01:35.191Z,11.70
2019-05-17T22:04:05.764Z,11.70
2019-05-17T22:06:35.947Z,11.80
2019-05-17T22:09:08.434Z,11.80
2019-05-17T22:11:40.612Z,11.80
2019-05-17T22:14:11.644Z,11.80
2019-05-17T22:16:42.529Z,11.80
2019-05-17T22:19:15.657Z,11.90
2019-05-17T22:21:45.642Z,11.90
2019-05-17T22:24:17.470Z,11.90
2019-05-17T22:26:55.853Z,11.90
2019-05-17T22:29:23.281Z,12.00
2019-05-17T22:31:53.657Z,12.00
2019-05-17T22:34:25.003Z,12.00
2019-05-17T22:36:56.051Z,12.00
2019-05-17T22:39:26.622Z,12.00
2019-05-17T22:41:57.120Z,12.00
2019-05-17T22:44:28.147Z,12.00
2019-05-17T22:46:58.882Z,11.90
2019-05-17T22:49:29.027Z,12.00
2019-05-17T22:52:00.140Z,11.90
2019-05-17T22:54:30.467Z,11.90
2019-05-17T22:57:00.587Z,11.90
2019-05-17T22:59:31.617Z,12.00
2019-05-17T23:02:02.776Z,12.00
2019-05-17T23:04:34.162Z,12.00
2019-05-17T23:07:05.784Z,12.00
2019-05-17T23:09:36.889Z,12.00
2019-05-17T23:12:07.432Z,12.00
2019-05-17T23:14:39.522Z,12.10
2019-05-17T23:17:09.998Z,12.10
2019-05-17T23:19:40.751Z,12.10
2019-05-17T23:22:12.125Z,12.20
2019-05-17T23:24:43.700Z,12.20
2019-05-17T23:27:14.946Z,12.10
2019-05-17T23:29:45.040Z,12.10
2019-05-17T23:32:16.258Z,12.00
2019-05-17T23:34:47.153Z,11.90
2019-05-17T23:37:18.033Z,11.90
2019-05-17T23:39:48.704Z,12.00
2019-05-17T23:42:20.530Z,12.00
2019-05-17T23:44:51.505Z,12.00
2019-05-17T23:47:21.477Z,12.10
2019-05-17T23:49:51.933Z,12.00
2019-05-17T23:52:22.620Z,12.10
2019-05-17T23:54:52.870Z,12.00
2019-05-17T23:57:24.244Z,12.00
2019-05-17T23:59:54.539Z,12.00
